Time,TemperatureF,DewpointF,PressureIn,WindDirection,WindDirectionDegrees,WindSpeedMPH,WindSpeedGustMPH,Humidity,HourlyPrecipIn,Conditions,Clouds,dailyrainin,SolarRadiationWatts/m^2,SoftwareType,DateUTC
2013-04-08 00:02:00,43.0,33.0,-100.00,South,185,2.0,14.0,68,0.00,,,0.00,9.000000,,2013-04-08 06:02:00,
2013-04-08 00:12:00,43.0,33.0,-100.00,South,185,2.0,14.0,68,0.00,,,0.00,9.000000,,2013-04-08 06:12:00,
2013-04-08 00:22:00,43.0,33.0,-100.00,South,185,2.0,14.0,68,0.00,,,0.00,9.000000,,2013-04-08 06:22:00,
2013-04-08 00:32:00,43.0,33.0,-100.00,South,185,2.0,14.0,68,0.00,,,0.00,9.000000,,2013-04-08 06:32:00,
2013-04-08 01:02:00,42.0,36.0,-100.00,WNW,295,1.0,11.0,79,0.00,,,0.00,11.000000,,2013-04-08 07:02:00,
2013-04-08 01:12:00,42.0,36.0,-100.00,WNW,295,1.0,11.0,79,0.00,,,0.00,11.000000,,2013-04-08 07:12:00,
2013-04-08 01:22:00,42.0,36.0,-100.00,WNW,295,1.0,11.0,79,0.00,,,0.00,11.000000,,2013-04-08 07:22:00,
2013-04-08 01:33:00,42.0,36.0,-100.00,WNW,295,1.0,11.0,79,0.00,,,0.00,11.000000,,2013-04-08 07:33:00,
2013-04-08 02:02:00,42.0,36.0,-100.00,NNE,22,3.0,4.0,78,0.00,,,0.00,11.000000,,2013-04-08 08:02:00,
2013-04-08 02:12:00,42.0,36.0,-100.00,NNE,22,3.0,4.0,78,0.00,,,0.00,11.000000,,2013-04-08 08:12:00,
2013-04-08 02:22:00,42.0,36.0,-100.00,NNE,22,3.0,4.0,78,0.00,,,0.00,11.000000,,2013-04-08 08:22:00,
2013-04-08 02:32:00,42.0,36.0,-100.00,NNE,22,3.0,4.0,78,0.00,,,0.00,11.000000,,2013-04-08 08:32:00,
2013-04-08 03:02:00,39.0,34.0,-100.00,NNW,334,3.0,6.0,83,0.00,,,0.00,16.000000,,2013-04-08 09:02:00,
2013-04-08 03:12:00,39.0,34.0,-100.00,NNW,334,3.0,6.0,83,0.00,,,0.00,16.000000,,2013-04-08 09:12:00,
2013-04-08 03:22:00,39.0,34.0,-100.00,NNW,334,3.0,6.0,83,0.00,,,0.00,16.000000,,2013-04-08 09:22:00,
2013-04-08 03:33:00,39.0,34.0,-100.00,NNW,334,3.0,6.0,83,0.00,,,0.00,16.000000,,2013-04-08 09:33:00,
2013-04-08 04:03:00,41.0,36.0,-100.00,NNW,332,3.0,7.0,81,0.00,,,-99.99,17.000000,,2013-04-08 10:03:00,
2013-04-08 04:13:00,41.0,36.0,-100.00,NNW,332,3.0,7.0,81,0.00,,,-99.99,17.000000,,2013-04-08 10:13:00,
2013-04-08 04:23:00,41.0,36.0,-100.00,NNW,332,3.0,7.0,81,0.00,,,-99.99,17.000000,,2013-04-08 10:23:00,
2013-04-08 04:33:00,41.0,36.0,-100.00,NNW,332,3.0,7.0,81,0.00,,,-99.99,17.000000,,2013-04-08 10:33:00,
2013-04-08 05:02:00,39.0,34.0,-100.00,NW,323,3.0,6.0,81,0.00,,,0.00,16.000000,,2013-04-08 11:02:00,
2013-04-08 05:12:00,39.0,34.0,-100.00,NW,323,3.0,6.0,81,0.00,,,0.00,16.000000,,2013-04-08 11:12:00,
2013-04-08 05:22:00,39.0,34.0,-100.00,NW,323,3.0,6.0,81,0.00,,,0.00,16.000000,,2013-04-08 11:22:00,
2013-04-08 05:32:00,39.0,34.0,-100.00,NW,323,3.0,6.0,81,0.00,,,0.00,16.000000,,2013-04-08 11:32:00,
2013-04-08 06:03:00,37.0,33.0,-100.00,NNW,339,5.0,7.0,86,0.00,,,0.00,21.000000,,2013-04-08 12:03:00,
2013-04-08 06:12:00,37.0,33.0,-100.00,NNW,339,5.0,7.0,86,0.00,,,0.00,21.000000,,2013-04-08 12:12:00,
2013-04-08 06:23:00,37.0,33.0,-100.00,NNW,339,5.0,7.0,86,0.00,,,0.00,21.000000,,2013-04-08 12:23:00,
2013-04-08 06:33:00,37.0,33.0,-100.00,NNW,339,5.0,7.0,86,0.00,,,0.00,21.000000,,2013-04-08 12:33:00,
2013-04-08 07:03:00,38.0,35.0,-100.00,NNW,336,3.0,8.0,88,0.00,,,0.00,23.000000,,2013-04-08 13:03:00,
2013-04-08 07:12:00,38.0,35.0,-100.00,NNW,336,3.0,8.0,88,0.00,,,0.00,23.000000,,2013-04-08 13:12:00,
2013-04-08 07:22:00,38.0,35.0,-100.00,NNW,336,3.0,8.0,88,0.00,,,0.00,23.000000,,2013-04-08 13:22:00,
2013-04-08 07:32:00,38.0,35.0,-100.00,NNW,336,3.0,8.0,88,0.00,,,0.00,23.000000,,2013-04-08 13:32:00,
2013-04-08 08:03:00,40.0,35.0,-100.00,NNE,25,2.0,5.0,82,0.00,,,0.00,67.000000,,2013-04-08 14:03:00,
2013-04-08 08:12:00,40.0,35.0,-100.00,NNE,25,2.0,5.0,82,0.00,,,0.00,67.000000,,2013-04-08 14:12:00,
2013-04-08 08:22:00,40.0,35.0,-100.00,NNE,25,2.0,5.0,82,0.00,,,0.00,67.000000,,2013-04-08 14:22:00,
2013-04-08 08:32:00,40.0,35.0,-100.00,NNE,25,2.0,5.0,82,0.00,,,0.00,67.000000,,2013-04-08 14:32:00,
2013-04-08 09:02:00,40.0,35.0,-100.00,North,354,3.0,11.0,81,0.00,,,0.00,386.000000,,2013-04-08 15:02:00,
2013-04-08 09:12:00,40.0,35.0,-100.00,North,354,3.0,11.0,81,0.00,,,0.00,386.000000,,2013-04-08 15:12:00,
2013-04-08 09:22:00,40.0,35.0,-100.00,North,354,3.0,11.0,81,0.00,,,0.00,386.000000,,2013-04-08 15:22:00,
2013-04-08 09:33:00,40.0,35.0,-100.00,North,354,3.0,11.0,81,0.00,,,0.00,386.000000,,2013-04-08 15:33:00,
2013-04-08 10:03:00,44.0,38.0,-100.00,ENE,74,5.0,10.0,79,0.00,,,0.00,461.000000,,2013-04-08 16:03:00,
2013-04-08 10:13:00,44.0,38.0,-100.00,ENE,74,5.0,10.0,79,0.00,,,0.00,461.000000,,2013-04-08 16:13:00,
2013-04-08 10:23:00,44.0,38.0,-100.00,ENE,74,5.0,10.0,79,0.00,,,0.00,461.000000,,2013-04-08 16:23:00,
2013-04-08 10:32:00,44.0,38.0,-100.00,ENE,74,5.0,10.0,79,0.00,,,0.00,461.000000,,2013-04-08 16:32:00,
2013-04-08 11:03:00,44.0,36.0,-100.00,NE,50,4.0,13.0,73,0.00,,,-99.99,152.000000,,2013-04-08 17:03:00,
2013-04-08 11:12:00,44.0,36.0,-100.00,NE,50,4.0,13.0,73,0.00,,,-99.99,152.000000,,2013-04-08 17:12:00,
2013-04-08 11:22:00,44.0,36.0,-100.00,NE,50,4.0,13.0,73,0.00,,,-99.99,152.000000,,2013-04-08 17:22:00,
2013-04-08 11:32:00,44.0,36.0,-100.00,NE,50,4.0,13.0,73,0.00,,,-99.99,152.000000,,2013-04-08 17:32:00,
2013-04-08 12:02:00,43.0,37.0,-100.00,NE,39,6.0,23.0,79,0.00,,,0.00,210.000000,,2013-04-08 18:02:00,
2013-04-08 12:12:00,43.0,37.0,-100.00,NE,39,6.0,23.0,79,0.00,,,0.00,210.000000,,2013-04-08 18:12:00,
2013-04-08 12:23:00,43.0,37.0,-100.00,NE,39,6.0,23.0,79,0.00,,,0.00,210.000000,,2013-04-08 18:23:00,
2013-04-08 12:32:00,43.0,37.0,-100.00,NE,39,6.0,23.0,79,0.00,,,0.00,210.000000,,2013-04-08 18:32:00,
2013-04-08 12:52:00,36.0,35.0,-100.00,NNE,27,7.0,19.0,96,0.00,,,0.00,7.000000,,2013-04-08 18:52:00,
2013-04-08 13:02:00,36.0,35.0,-100.00,NNE,27,7.0,19.0,96,0.00,,,0.00,7.000000,,2013-04-08 19:02:00,
2013-04-08 13:12:00,36.0,35.0,-100.00,NNE,27,7.0,19.0,96,0.00,,,0.00,7.000000,,2013-04-08 19:12:00,
2013-04-08 13:23:00,36.0,35.0,-100.00,NNE,27,7.0,19.0,96,0.00,,,0.00,7.000000,,2013-04-08 19:23:00,
2013-04-08 13:33:00,36.0,35.0,-100.00,NNE,27,7.0,19.0,96,0.00,,,0.00,7.000000,,2013-04-08 19:33:00,
2013-04-08 13:52:00,37.0,35.0,-100.00,NNE,25,8.0,20.0,91,0.00,,,0.00,8.000000,,2013-04-08 19:52:00,
2013-04-08 14:02:00,37.0,35.0,-100.00,NNE,25,8.0,20.0,91,0.00,,,0.00,8.000000,,2013-04-08 20:02:00,
2013-04-08 14:12:00,37.0,35.0,-100.00,NNE,25,8.0,20.0,91,0.00,,,0.00,8.000000,,2013-04-08 20:12:00,
2013-04-08 14:22:00,37.0,35.0,-100.00,NNE,25,8.0,20.0,91,0.00,,,0.00,8.000000,,2013-04-08 20:22:00,
2013-04-08 14:33:00,37.0,35.0,-100.00,NNE,25,8.0,20.0,91,0.00,,,0.00,8.000000,,2013-04-08 20:33:00,
2013-04-08 15:02:00,40.0,31.0,-100.00,North,2,7.0,21.0,70,0.00,,,0.00,23.000000,,2013-04-08 21:02:00,
2013-04-08 15:12:00,40.0,31.0,-100.00,North,2,7.0,21.0,70,0.00,,,0.00,23.000000,,2013-04-08 21:12:00,
2013-04-08 15:22:00,40.0,31.0,-100.00,North,2,7.0,21.0,70,0.00,,,0.00,23.000000,,2013-04-08 21:22:00,
2013-04-08 15:32:00,40.0,31.0,-100.00,North,2,7.0,21.0,70,0.00,,,0.00,23.000000,,2013-04-08 21:32:00,
2013-04-08 16:03:00,34.0,27.0,-100.00,North,358,10.0,27.0,74,0.00,,,0.00,4.000000,,2013-04-08 22:03:00,
2013-04-08 16:13:00,34.0,27.0,-100.00,North,358,10.0,27.0,74,0.00,,,0.00,4.000000,,2013-04-08 22:13:00,
2013-04-08 16:23:00,34.0,27.0,-100.00,North,358,10.0,27.0,74,0.00,,,0.00,4.000000,,2013-04-08 22:23:00,
2013-04-08 16:32:00,34.0,27.0,-100.00,North,358,10.0,27.0,74,0.00,,,0.00,4.000000,,2013-04-08 22:32:00,
2013-04-08 17:02:00,32.0,24.0,-100.00,North,356,10.0,30.0,71,0.00,,,0.00,9.000000,,2013-04-08 23:02:00,
2013-04-08 17:12:00,32.0,24.0,-100.00,North,356,10.0,30.0,71,0.00,,,0.00,9.000000,,2013-04-08 23:12:00,
2013-04-08 17:22:00,32.0,24.0,-100.00,North,356,10.0,30.0,71,0.00,,,0.00,9.000000,,2013-04-08 23:22:00,
2013-04-08 17:32:00,32.0,24.0,-100.00,North,356,10.0,30.0,71,0.00,,,0.00,9.000000,,2013-04-08 23:32:00,
2013-04-08 18:02:00,27.0,24.0,-100.00,North,6,11.0,33.0,88,0.00,,,0.00,10.000000,,2013-04-09 00:02:00,
2013-04-08 18:12:00,27.0,24.0,-100.00,North,6,11.0,33.0,88,0.00,,,0.00,10.000000,,2013-04-09 00:12:00,
2013-04-08 18:22:00,27.0,24.0,-100.00,North,6,11.0,33.0,88,0.00,,,0.00,10.000000,,2013-04-09 00:22:00,
2013-04-08 18:32:00,27.0,24.0,-100.00,North,6,11.0,33.0,88,0.00,,,0.00,10.000000,,2013-04-09 00:32:00,
2013-04-08 19:02:00,26.0,20.0,-100.00,WSW,245,10.0,30.0,79,0.00,,,0.00,17.000000,,2013-04-09 01:02:00,
2013-04-08 19:12:00,26.0,20.0,-100.00,WSW,245,10.0,30.0,79,0.00,,,0.00,17.000000,,2013-04-09 01:12:00,
2013-04-08 19:22:00,26.0,20.0,-100.00,WSW,245,10.0,30.0,79,0.00,,,0.00,17.000000,,2013-04-09 01:22:00,
2013-04-08 19:33:00,26.0,20.0,-100.00,WSW,245,10.0,30.0,79,0.00,,,0.00,17.000000,,2013-04-09 01:33:00,
2013-04-08 20:02:00,24.0,18.0,-100.00,North,357,12.0,31.0,76,0.00,,,0.00,15.000000,,2013-04-09 02:02:00,
2013-04-08 20:13:00,24.0,18.0,-100.00,North,357,12.0,31.0,76,0.00,,,0.00,15.000000,,2013-04-09 02:13:00,
2013-04-08 20:22:00,24.0,18.0,-100.00,North,357,12.0,31.0,76,0.00,,,0.00,15.000000,,2013-04-09 02:22:00,
2013-04-08 20:32:00,24.0,18.0,-100.00,North,357,12.0,31.0,76,0.00,,,0.00,15.000000,,2013-04-09 02:32:00,
2013-04-08 21:02:00,21.0,16.0,-100.00,North,355,10.0,32.0,82,0.00,,,0.00,35.000000,,2013-04-09 03:02:00,
2013-04-08 21:12:00,21.0,16.0,-100.00,North,355,10.0,32.0,82,0.00,,,0.00,35.000000,,2013-04-09 03:12:00,
2013-04-08 21:21:00,21.0,16.0,-100.00,North,355,10.0,32.0,82,0.00,,,0.00,35.000000,,2013-04-09 03:21:00,
2013-04-08 21:33:00,21.0,16.0,-100.00,North,355,10.0,32.0,82,0.00,,,0.00,35.000000,,2013-04-09 03:33:00,
2013-04-08 22:03:00,19.0,16.0,-100.00,North,351,9.0,30.0,86,0.00,,,0.00,62.000000,,2013-04-09 04:03:00,
2013-04-08 22:13:00,19.0,16.0,-100.00,North,351,9.0,30.0,86,0.00,,,0.00,62.000000,,2013-04-09 04:13:00,
2013-04-08 22:23:00,19.0,16.0,-100.00,North,351,9.0,30.0,86,0.00,,,0.00,62.000000,,2013-04-09 04:23:00,
2013-04-08 22:32:00,19.0,16.0,-100.00,North,351,9.0,30.0,86,0.00,,,0.00,62.000000,,2013-04-09 04:32:00,
2013-04-08 23:02:00,17.0,14.0,-100.00,North,352,13.0,30.0,86,0.00,,,0.00,72.000000,,2013-04-09 05:02:00,
2013-04-08 23:12:00,17.0,14.0,-100.00,North,352,13.0,30.0,86,0.00,,,0.00,72.000000,,2013-04-09 05:12:00,
2013-04-08 23:22:00,17.0,14.0,-100.00,North,352,13.0,30.0,86,0.00,,,0.00,72.000000,,2013-04-09 05:22:00,
2013-04-08 23:32:00,17.0,14.0,-100.00,North,352,13.0,30.0,86,0.00,,,0.00,72.000000,,2013-04-09 05:32:00,